sensor_id;sensor_type;location;lat;lon;timestamp;pressure;altitude;pressure_sealevel;temperature;humidity
12213;BME280;6169;44.158;22.788;2023-03-23T00:04:21;101161.59;;;12.84;53.35
12213;BME280;6169;44.158;22.788;2023-03-23T00:09:27;101182.00;;;13.22;52.46
12213;BME280;6169;44.158;22.788;2023-03-23T00:14:31;101020.34;;;12.22;51.86
12213;BME280;6169;44.158;22.788;2023-03-23T00:19:42;101174.16;;;13.54;50.75
12213;BME280;6169;44.158;22.788;2023-03-23T00:24:52;101175.84;;;13.15;50.92
12213;BME280;6169;44.158;22.788;2023-03-23T00:29:54;101181.22;;;13.10;51.19
12213;BME280;6169;44.158;22.788;2023-03-23T00:34:59;101171.59;;;12.43;51.56
12213;BME280;6169;44.158;22.788;2023-03-23T00:40:01;101178.44;;;12.69;52.58
12213;BME280;6169;44.158;22.788;2023-03-23T00:45:09;101172.13;;;13.50;50.14
12213;BME280;6169;44.158;22.788;2023-03-23T00:50:14;101180.88;;;13.35;51.00
12213;BME280;6169;44.158;22.788;2023-03-23T00:55:16;101173.50;;;13.07;51.53
12213;BME280;6169;44.158;22.788;2023-03-23T01:00:19;101183.66;;;12.83;52.73
12213;BME280;6169;44.158;22.788;2023-03-23T01:05:23;101179.59;;;13.54;50.73
12213;BME280;6169;44.158;22.788;2023-03-23T01:10:25;101174.72;;;13.85;50.93
12213;BME280;6169;44.158;22.788;2023-03-23T01:15:29;101176.09;;;13.71;52.26
12213;BME280;6169;44.158;22.788;2023-03-23T01:20:33;101175.09;;;13.31;53.69
12213;BME280;6169;44.158;22.788;2023-03-23T01:25:36;101175.09;;;13.31;54.98
12213;BME280;6169;44.158;22.788;2023-03-23T01:30:39;101171.00;;;13.46;54.99
12213;BME280;6169;44.158;22.788;2023-03-23T01:35:42;101178.59;;;13.89;53.24
12213;BME280;6169;44.158;22.788;2023-03-23T01:40:44;101173.44;;;13.30;56.54
12213;BME280;6169;44.158;22.788;2023-03-23T01:45:46;101172.63;;;13.47;55.80
12213;BME280;6169;44.158;22.788;2023-03-23T01:50:56;101171.16;;;12.99;57.50
12213;BME280;6169;44.158;22.788;2023-03-23T01:56:01;101177.16;;;13.12;57.76
12213;BME280;6169;44.158;22.788;2023-03-23T02:01:06;101181.06;;;12.88;59.06
12213;BME280;6169;44.158;22.788;2023-03-23T02:06:13;101175.31;;;13.01;59.10
12213;BME280;6169;44.158;22.788;2023-03-23T02:11:16;101175.47;;;13.23;58.62
12213;BME280;6169;44.158;22.788;2023-03-23T02:16:30;101175.50;;;13.69;57.68
12213;BME280;6169;44.158;22.788;2023-03-23T02:22:03;101184.69;;;13.63;57.55
12213;BME280;6169;44.158;22.788;2023-03-23T02:27:12;101187.16;;;13.93;56.49
12213;BME280;6169;44.158;22.788;2023-03-23T02:32:45;101184.69;;;13.63;57.74
12213;BME280;6169;44.158;22.788;2023-03-23T02:37:57;101184.25;;;13.99;56.90
12213;BME280;6169;44.158;22.788;2023-03-23T02:43:01;101184.06;;;13.89;56.30
12213;BME280;6169;44.158;22.788;2023-03-23T02:48:06;101198.22;;;14.37;55.08
12213;BME280;6169;44.158;22.788;2023-03-23T02:53:12;101197.19;;;14.38;54.58
12213;BME280;6169;44.158;22.788;2023-03-23T02:58:15;101203.38;;;14.16;55.14
12213;BME280;6169;44.158;22.788;2023-03-23T03:03:19;101215.00;;;14.07;55.71
12213;BME280;6169;44.158;22.788;2023-03-23T03:08:26;101195.66;;;13.79;57.47
12213;BME280;6169;44.158;22.788;2023-03-23T03:13:39;101213.38;;;13.48;58.65
12213;BME280;6169;44.158;22.788;2023-03-23T03:18:47;101207.47;;;13.68;59.04
12213;BME280;6169;44.158;22.788;2023-03-23T03:23:55;101212.66;;;13.53;58.81
12213;BME280;6169;44.158;22.788;2023-03-23T03:28:59;101220.75;;;13.48;58.49
12213;BME280;6169;44.158;22.788;2023-03-23T03:34:02;101214.53;;;13.52;58.38
12213;BME280;6169;44.158;22.788;2023-03-23T03:39:07;101216.59;;;13.45;59.42
12213;BME280;6169;44.158;22.788;2023-03-23T03:44:10;101218.06;;;13.24;59.89
12213;BME280;6169;44.158;22.788;2023-03-23T03:49:13;101219.66;;;13.49;59.17
12213;BME280;6169;44.158;22.788;2023-03-23T03:54:17;101226.22;;;13.48;58.51
12213;BME280;6169;44.158;22.788;2023-03-23T03:59:19;101227.78;;;13.60;58.35
12213;BME280;6169;44.158;22.788;2023-03-23T04:04:21;101226.38;;;13.58;58.30
12213;BME280;6169;44.158;22.788;2023-03-23T04:09:25;101230.97;;;13.81;57.74
12213;BME280;6169;44.158;22.788;2023-03-23T04:14:28;101234.06;;;14.35;55.58
12213;BME280;6169;44.158;22.788;2023-03-23T04:19:30;101229.72;;;14.06;56.10
12213;BME280;6169;44.158;22.788;2023-03-23T04:24:35;101238.53;;;14.08;56.79
12213;BME280;6169;44.158;22.788;2023-03-23T04:29:37;101223.31;;;13.54;57.40
12213;BME280;6169;44.158;22.788;2023-03-23T04:34:40;101237.41;;;13.63;57.77
12213;BME280;6169;44.158;22.788;2023-03-23T04:39:44;101238.00;;;13.94;56.60
12213;BME280;6169;44.158;22.788;2023-03-23T04:44:47;101239.53;;;13.73;56.58
12213;BME280;6169;44.158;22.788;2023-03-23T04:49:53;101236.50;;;13.86;56.40
12213;BME280;6169;44.158;22.788;2023-03-23T04:54:57;101244.56;;;13.64;57.22
12213;BME280;6169;44.158;22.788;2023-03-23T05:00:00;101244.97;;;13.44;57.44
12213;BME280;6169;44.158;22.788;2023-03-23T05:05:06;101255.09;;;13.32;58.12
12213;BME280;6169;44.158;22.788;2023-03-23T05:10:12;101266.44;;;13.00;58.07
12213;BME280;6169;44.158;22.788;2023-03-23T05:15:15;101274.63;;;13.52;58.42
12213;BME280;6169;44.158;22.788;2023-03-23T05:20:18;101269.56;;;13.73;57.97
12213;BME280;6169;44.158;22.788;2023-03-23T05:25:23;101279.28;;;14.09;56.31
12213;BME280;6169;44.158;22.788;2023-03-23T05:30:26;101290.06;;;14.16;55.88
12213;BME280;6169;44.158;22.788;2023-03-23T05:35:29;101287.72;;;14.08;55.46
12213;BME280;6169;44.158;22.788;2023-03-23T05:40:33;101287.63;;;13.33;58.17
12213;BME280;6169;44.158;22.788;2023-03-23T05:45:35;101296.38;;;13.88;57.40
12213;BME280;6169;44.158;22.788;2023-03-23T05:50:37;101294.88;;;13.80;56.87
12213;BME280;6169;44.158;22.788;2023-03-23T05:55:40;101298.00;;;13.60;59.06
12213;BME280;6169;44.158;22.788;2023-03-23T06:00:43;101306.16;;;13.72;58.62
12213;BME280;6169;44.158;22.788;2023-03-23T06:05:45;101308.63;;;14.31;55.60
12213;BME280;6169;44.158;22.788;2023-03-23T06:10:49;101315.63;;;13.93;57.20
12213;BME280;6169;44.158;22.788;2023-03-23T06:15:54;101324.09;;;14.08;54.71
12213;BME280;6169;44.158;22.788;2023-03-23T06:20:57;101322.09;;;13.75;56.81
12213;BME280;6169;44.158;22.788;2023-03-23T06:26:04;101321.59;;;13.78;56.26
12213;BME280;6169;44.158;22.788;2023-03-23T06:31:07;101311.38;;;14.47;55.18
12213;BME280;6169;44.158;22.788;2023-03-23T06:36:09;101320.03;;;14.11;56.52
12213;BME280;6169;44.158;22.788;2023-03-23T06:41:14;101327.22;;;13.59;58.31
12213;BME280;6169;44.158;22.788;2023-03-23T06:46:16;101330.09;;;13.41;59.14
12213;BME280;6169;44.158;22.788;2023-03-23T06:51:18;101327.22;;;13.59;57.17
12213;BME280;6169;44.158;22.788;2023-03-23T06:56:22;101327.63;;;13.40;60.29
12213;BME280;6169;44.158;22.788;2023-03-23T07:01:25;101337.75;;;13.27;60.18
12213;BME280;6169;44.158;22.788;2023-03-23T07:06:28;101350.78;;;13.49;59.09
12213;BME280;6169;44.158;22.788;2023-03-23T07:11:32;101343.00;;;13.81;57.05
12213;BME280;6169;44.158;22.788;2023-03-23T07:16:34;101356.44;;;14.28;56.05
12213;BME280;6169;44.158;22.788;2023-03-23T07:21:37;101356.13;;;14.70;53.83
12213;BME280;6169;44.158;22.788;2023-03-23T07:26:41;101353.94;;;14.10;56.54
12213;BME280;6169;44.158;22.788;2023-03-23T07:31:43;101355.44;;;14.63;55.07
12213;BME280;6169;44.158;22.788;2023-03-23T07:36:45;101351.19;;;15.06;52.74
12213;BME280;6169;44.158;22.788;2023-03-23T07:41:49;101347.16;;;14.91;53.69
12213;BME280;6169;44.158;22.788;2023-03-23T07:46:52;101351.53;;;14.92;53.67
12213;BME280;6169;44.158;22.788;2023-03-23T07:51:54;101360.47;;;15.44;54.17
12213;BME280;6169;44.158;22.788;2023-03-23T07:56:57;101355.09;;;15.10;54.07
12213;BME280;6169;44.158;22.788;2023-03-23T08:02:00;101361.44;;;14.93;55.60
12213;BME280;6169;44.158;22.788;2023-03-23T08:07:02;101361.06;;;15.07;56.69
12213;BME280;6169;44.158;22.788;2023-03-23T08:12:06;101346.44;;;15.79;51.61
12213;BME280;6169;44.158;22.788;2023-03-23T08:17:08;101371.28;;;15.94;50.55
12213;BME280;6169;44.158;22.788;2023-03-23T08:22:11;101362.00;;;15.95;51.01
12213;BME280;6169;44.158;22.788;2023-03-23T08:27:14;101364.19;;;14.77;54.80
12213;BME280;6169;44.158;22.788;2023-03-23T08:32:17;101369.25;;;14.56;54.57
12213;BME280;6169;44.158;22.788;2023-03-23T08:37:19;101363.66;;;14.97;54.74
12213;BME280;6169;44.158;22.788;2023-03-23T08:42:23;101379.56;;;15.99;50.05
12213;BME280;6169;44.158;22.788;2023-03-23T08:47:26;101377.22;;;16.35;50.32
12213;BME280;6169;44.158;22.788;2023-03-23T08:52:28;101378.59;;;16.65;49.53
12213;BME280;6169;44.158;22.788;2023-03-23T08:57:32;101377.94;;;16.25;49.52
12213;BME280;6169;44.158;22.788;2023-03-23T09:02:35;101377.72;;;16.54;49.43
12213;BME280;6169;44.158;22.788;2023-03-23T09:07:38;101375.91;;;16.70;50.53
12213;BME280;6169;44.158;22.788;2023-03-23T09:12:42;101377.19;;;16.08;50.04
12213;BME280;6169;44.158;22.788;2023-03-23T09:17:46;101375.50;;;16.29;51.64
12213;BME280;6169;44.158;22.788;2023-03-23T09:22:52;101372.97;;;15.34;54.56
12213;BME280;6169;44.158;22.788;2023-03-23T09:27:58;101313.75;;;15.72;52.54
12213;BME280;6169;44.158;22.788;2023-03-23T09:33:01;101360.16;;;15.40;53.55
12213;BME280;6169;44.158;22.788;2023-03-23T09:38:03;101356.91;;;15.82;53.68
12213;BME280;6169;44.158;22.788;2023-03-23T09:43:20;101354.44;;;15.03;55.72
12213;BME280;6169;44.158;22.788;2023-03-23T09:48:38;101356.69;;;15.45;54.60
12213;BME280;6169;44.158;22.788;2023-03-23T09:53:47;101351.19;;;15.45;55.96
12213;BME280;6169;44.158;22.788;2023-03-23T09:58:55;101347.13;;;15.91;53.41
12213;BME280;6169;44.158;22.788;2023-03-23T10:04:03;101344.56;;;16.07;53.78
12213;BME280;6169;44.158;22.788;2023-03-23T10:09:14;101332.09;;;16.21;53.40
12213;BME280;6169;44.158;22.788;2023-03-23T10:14:28;101335.47;;;15.18;54.58
12213;BME280;6169;44.158;22.788;2023-03-23T10:19:36;101334.00;;;15.71;52.94
12213;BME280;6169;44.158;22.788;2023-03-23T10:24:50;101330.06;;;16.38;52.95
12213;BME280;6169;44.158;22.788;2023-03-23T10:29:57;101330.09;;;16.76;51.64
12213;BME280;6169;44.158;22.788;2023-03-23T10:35:03;101327.31;;;17.60;46.02
12213;BME280;6169;44.158;22.788;2023-03-23T10:40:12;101329.75;;;17.52;46.95
12213;BME280;6169;44.158;22.788;2023-03-23T10:45:20;101327.06;;;17.14;48.83
12213;BME280;6169;44.158;22.788;2023-03-23T10:50:25;101313.09;;;17.79;46.68
12213;BME280;6169;44.158;22.788;2023-03-23T10:55:37;101314.03;;;18.61;44.79
12213;BME280;6169;44.158;22.788;2023-03-23T11:00:43;101310.91;;;17.81;44.73
12213;BME280;6169;44.158;22.788;2023-03-23T11:05:50;101303.75;;;17.85;46.09
12213;BME280;6169;44.158;22.788;2023-03-23T11:10:54;101312.06;;;18.05;46.24
12213;BME280;6169;44.158;22.788;2023-03-23T11:15:59;101298.91;;;18.74;43.37
12213;BME280;6169;44.158;22.788;2023-03-23T11:21:02;101291.09;;;19.07;39.87
12213;BME280;6169;44.158;22.788;2023-03-23T11:26:11;101291.63;;;19.84;39.82
12213;BME280;6169;44.158;22.788;2023-03-23T11:31:21;101281.41;;;20.29;36.16
12213;BME280;6169;44.158;22.788;2023-03-23T11:36:33;101274.59;;;20.11;36.08
12213;BME280;6169;44.158;22.788;2023-03-23T11:41:38;101259.41;;;20.48;35.21
12213;BME280;6169;44.158;22.788;2023-03-23T11:46:49;101246.56;;;20.33;35.30
12213;BME280;6169;44.158;22.788;2023-03-23T11:51:55;101246.75;;;21.43;34.73
12213;BME280;6169;44.158;22.788;2023-03-23T11:57:05;101220.16;;;21.04;33.91
12213;BME280;6169;44.158;22.788;2023-03-23T12:02:24;101223.66;;;20.91;33.82
12213;BME280;6169;44.158;22.788;2023-03-23T12:07:45;101226.75;;;21.08;34.88
12213;BME280;6169;44.158;22.788;2023-03-23T12:12:55;101213.78;;;21.47;32.86
12213;BME280;6169;44.158;22.788;2023-03-23T12:18:06;101218.19;;;20.27;36.33
12213;BME280;6169;44.158;22.788;2023-03-23T12:23:23;101209.34;;;21.08;37.72
12213;BME280;6169;44.158;22.788;2023-03-23T12:28:39;101205.31;;;21.38;34.98
12213;BME280;6169;44.158;22.788;2023-03-23T12:33:53;101198.31;;;20.79;34.43
12213;BME280;6169;44.158;22.788;2023-03-23T12:44:53;101192.56;;;21.80;31.62
12213;BME280;6169;44.158;22.788;2023-03-23T12:50:00;101185.59;;;22.62;30.84
12213;BME280;6169;44.158;22.788;2023-03-23T12:55:11;101182.91;;;21.77;31.69
12213;BME280;6169;44.158;22.788;2023-03-23T13:00:20;101169.34;;;20.76;34.04
12213;BME280;6169;44.158;22.788;2023-03-23T13:05:35;101155.13;;;20.64;35.01
12213;BME280;6169;44.158;22.788;2023-03-23T13:10:44;101162.41;;;21.03;33.66
12213;BME280;6169;44.158;22.788;2023-03-23T13:15:58;101154.78;;;22.22;31.82
12213;BME280;6169;44.158;22.788;2023-03-23T13:21:12;101149.63;;;20.88;33.88
12213;BME280;6169;44.158;22.788;2023-03-23T13:26:19;101137.81;;;21.77;32.68
12213;BME280;6169;44.158;22.788;2023-03-23T13:31:24;101132.19;;;21.82;32.23
12213;BME280;6169;44.158;22.788;2023-03-23T13:36:35;101124.69;;;22.01;31.67
12213;BME280;6169;44.158;22.788;2023-03-23T13:41:48;101119.72;;;22.45;32.13
12213;BME280;6169;44.158;22.788;2023-03-23T13:46:55;101115.41;;;21.41;32.19
12213;BME280;6169;44.158;22.788;2023-03-23T13:52:13;101110.53;;;21.70;32.27
12213;BME280;6169;44.158;22.788;2023-03-23T13:57:26;101104.19;;;21.70;31.08
12213;BME280;6169;44.158;22.788;2023-03-23T14:02:36;101098.28;;;22.37;30.91
12213;BME280;6169;44.158;22.788;2023-03-23T14:07:57;101089.91;;;21.95;30.96
12213;BME280;6169;44.158;22.788;2023-03-23T14:13:02;101094.69;;;22.64;30.53
12213;BME280;6169;44.158;22.788;2023-03-23T14:18:05;101096.53;;;21.80;30.54
12213;BME280;6169;44.158;22.788;2023-03-23T14:23:15;101099.81;;;22.29;29.72
12213;BME280;6169;44.158;22.788;2023-03-23T14:28:19;101096.94;;;22.89;29.45
12213;BME280;6169;44.158;22.788;2023-03-23T14:33:22;101089.25;;;22.17;30.69
12213;BME280;6169;44.158;22.788;2023-03-23T14:38:28;101090.59;;;22.47;30.60
12213;BME280;6169;44.158;22.788;2023-03-23T14:43:33;101082.38;;;22.56;30.02
12213;BME280;6169;44.158;22.788;2023-03-23T14:48:36;101078.59;;;22.24;30.14
12213;BME280;6169;44.158;22.788;2023-03-23T14:53:41;101084.44;;;22.23;30.71
12213;BME280;6169;44.158;22.788;2023-03-23T14:58:45;101070.91;;;22.35;30.31
12213;BME280;6169;44.158;22.788;2023-03-23T15:03:52;101064.19;;;21.95;30.67
12213;BME280;6169;44.158;22.788;2023-03-23T15:09:00;101064.75;;;22.38;30.35
12213;BME280;6169;44.158;22.788;2023-03-23T15:14:16;101060.56;;;21.94;30.27
12213;BME280;6169;44.158;22.788;2023-03-23T15:19:21;101056.59;;;21.87;30.95
12213;BME280;6169;44.158;22.788;2023-03-23T15:24:33;101059.72;;;22.26;31.51
12213;BME280;6169;44.158;22.788;2023-03-23T15:29:46;101058.63;;;22.09;31.00
12213;BME280;6169;44.158;22.788;2023-03-23T15:34:48;101052.25;;;21.94;30.87
12213;BME280;6169;44.158;22.788;2023-03-23T15:39:53;101064.16;;;21.81;31.70
12213;BME280;6169;44.158;22.788;2023-03-23T15:45:16;101053.28;;;21.85;31.60
12213;BME280;6169;44.158;22.788;2023-03-23T15:50:33;101056.06;;;21.98;30.88
12213;BME280;6169;44.158;22.788;2023-03-23T15:55:38;101058.09;;;21.79;31.25
12213;BME280;6169;44.158;22.788;2023-03-23T16:00:42;101059.41;;;21.68;31.35
12213;BME280;6169;44.158;22.788;2023-03-23T16:05:45;101059.06;;;21.55;31.85
12213;BME280;6169;44.158;22.788;2023-03-23T16:10:48;101057.19;;;21.51;32.22
12213;BME280;6169;44.158;22.788;2023-03-23T16:15:51;101064.94;;;21.16;32.92
12213;BME280;6169;44.158;22.788;2023-03-23T16:20:53;101073.53;;;20.71;33.38
12213;BME280;6169;44.158;22.788;2023-03-23T16:25:57;101068.13;;;20.61;33.94
12213;BME280;6169;44.158;22.788;2023-03-23T16:30:59;101064.06;;;20.35;35.02
12213;BME280;6169;44.158;22.788;2023-03-23T16:36:02;101064.00;;;20.16;35.26
12213;BME280;6169;44.158;22.788;2023-03-23T16:41:06;101054.09;;;20.10;34.99
12213;BME280;6169;44.158;22.788;2023-03-23T16:46:10;101057.53;;;19.72;35.59
12213;BME280;6169;44.158;22.788;2023-03-23T16:51:13;101057.28;;;19.64;35.86
12213;BME280;6169;44.158;22.788;2023-03-23T16:56:17;101069.09;;;19.35;36.26
12213;BME280;6169;44.158;22.788;2023-03-23T17:01:19;101071.81;;;19.40;36.17
12213;BME280;6169;44.158;22.788;2023-03-23T17:06:21;101076.44;;;19.10;36.68
12213;BME280;6169;44.158;22.788;2023-03-23T17:11:25;101081.13;;;18.50;37.98
12213;BME280;6169;44.158;22.788;2023-03-23T17:16:27;101076.50;;;18.30;38.51
12213;BME280;6169;44.158;22.788;2023-03-23T17:21:29;101091.09;;;18.25;38.75
12213;BME280;6169;44.158;22.788;2023-03-23T17:26:33;101105.16;;;18.24;38.62
12213;BME280;6169;44.158;22.788;2023-03-23T17:31:35;101109.88;;;17.72;39.92
12213;BME280;6169;44.158;22.788;2023-03-23T17:36:38;101111.25;;;17.65;39.74
12213;BME280;6169;44.158;22.788;2023-03-23T17:41:41;101111.50;;;17.53;40.02
12213;BME280;6169;44.158;22.788;2023-03-23T17:46:44;101126.88;;;17.49;40.45
12213;BME280;6169;44.158;22.788;2023-03-23T17:51:46;101123.84;;;17.35;40.35
12213;BME280;6169;44.158;22.788;2023-03-23T17:56:50;101127.59;;;17.03;41.12
12213;BME280;6169;44.158;22.788;2023-03-23T18:01:52;101139.00;;;16.69;42.12
12213;BME280;6169;44.158;22.788;2023-03-23T18:06:55;101139.50;;;16.61;42.93
12213;BME280;6169;44.158;22.788;2023-03-23T18:11:59;101144.31;;;16.39;44.08
12213;BME280;6169;44.158;22.788;2023-03-23T18:17:02;101133.22;;;16.66;43.35
12213;BME280;6169;44.158;22.788;2023-03-23T18:22:05;101134.59;;;16.68;42.72
12213;BME280;6169;44.158;22.788;2023-03-23T18:27:08;101124.88;;;16.08;44.80
12213;BME280;6169;44.158;22.788;2023-03-23T18:32:11;101135.41;;;16.21;44.49
12213;BME280;6169;44.158;22.788;2023-03-23T18:37:13;101141.47;;;16.23;44.42
12213;BME280;6169;44.158;22.788;2023-03-23T18:42:17;101152.97;;;16.25;44.04
12213;BME280;6169;44.158;22.788;2023-03-23T18:47:19;101152.72;;;15.90;45.03
12213;BME280;6169;44.158;22.788;2023-03-23T18:52:22;101162.06;;;15.94;44.97
12213;BME280;6169;44.158;22.788;2023-03-23T18:57:27;101163.03;;;15.77;45.95
12213;BME280;6169;44.158;22.788;2023-03-23T19:02:30;101171.97;;;16.00;44.48
12213;BME280;6169;44.158;22.788;2023-03-23T19:07:33;101176.91;;;15.66;45.20
12213;BME280;6169;44.158;22.788;2023-03-23T19:12:37;101174.16;;;15.38;45.70
12213;BME280;6169;44.158;22.788;2023-03-23T19:17:42;101169.97;;;15.58;45.48
12213;BME280;6169;44.158;22.788;2023-03-23T19:22:44;101171.25;;;15.50;44.96
12213;BME280;6169;44.158;22.788;2023-03-23T19:27:49;101165.88;;;15.33;45.50
12213;BME280;6169;44.158;22.788;2023-03-23T19:32:51;101166.69;;;15.56;45.05
12213;BME280;6169;44.158;22.788;2023-03-23T19:37:54;101174.53;;;15.25;45.77
12213;BME280;6169;44.158;22.788;2023-03-23T19:42:58;101171.50;;;14.78;47.02
12213;BME280;6169;44.158;22.788;2023-03-23T19:48:01;101177.16;;;14.71;47.06
12213;BME280;6169;44.158;22.788;2023-03-23T19:53:04;101158.84;;;14.93;45.74
12213;BME280;6169;44.158;22.788;2023-03-23T19:58:08;101186.78;;;15.18;44.34
12213;BME280;6169;44.158;22.788;2023-03-23T20:03:11;101186.91;;;14.84;46.21
12213;BME280;6169;44.158;22.788;2023-03-23T20:08:14;101188.25;;;14.64;46.21
12213;BME280;6169;44.158;22.788;2023-03-23T20:13:17;101185.56;;;14.86;44.90
12213;BME280;6169;44.158;22.788;2023-03-23T20:18:20;101184.34;;;15.21;45.09
12213;BME280;6169;44.158;22.788;2023-03-23T20:23:22;101183.97;;;14.52;46.22
12213;BME280;6169;44.158;22.788;2023-03-23T20:28:27;101140.31;;;14.23;45.93
12213;BME280;6169;44.158;22.788;2023-03-23T20:33:30;101181.13;;;14.63;45.75
12213;BME280;6169;44.158;22.788;2023-03-23T20:38:33;101176.66;;;14.74;44.51
12213;BME280;6169;44.158;22.788;2023-03-23T20:43:39;101169.50;;;14.73;44.95
12213;BME280;6169;44.158;22.788;2023-03-23T20:48:42;101163.03;;;14.62;45.18
12213;BME280;6169;44.158;22.788;2023-03-23T20:53:45;101149.63;;;14.61;44.85
12213;BME280;6169;44.158;22.788;2023-03-23T20:58:49;101160.91;;;14.47;45.21
12213;BME280;6169;44.158;22.788;2023-03-23T21:03:52;101162.13;;;14.35;45.62
12213;BME280;6169;44.158;22.788;2023-03-23T21:08:56;101171.41;;;14.17;46.70
12213;BME280;6169;44.158;22.788;2023-03-23T21:14:00;101167.66;;;14.23;45.50
12213;BME280;6169;44.158;22.788;2023-03-23T21:19:04;101169.75;;;13.99;45.87
12213;BME280;6169;44.158;22.788;2023-03-23T21:24:08;101176.91;;;13.71;46.12
12213;BME280;6169;44.158;22.788;2023-03-23T21:29:12;101176.66;;;13.56;45.92
12213;BME280;6169;44.158;22.788;2023-03-23T21:34:15;101175.19;;;13.36;46.70
12213;BME280;6169;44.158;22.788;2023-03-23T21:39:17;101184.31;;;13.42;46.52
12213;BME280;6169;44.158;22.788;2023-03-23T21:44:22;101173.72;;;13.46;45.73
12213;BME280;6169;44.158;22.788;2023-03-23T21:49:24;101182.84;;;13.51;46.46
12213;BME280;6169;44.158;22.788;2023-03-23T21:54:27;101191.31;;;13.09;47.50
12213;BME280;6169;44.158;22.788;2023-03-23T21:59:31;101192.44;;;12.61;48.84
12213;BME280;6169;44.158;22.788;2023-03-23T22:04:33;101200.28;;;12.46;48.63
12213;BME280;6169;44.158;22.788;2023-03-23T22:09:36;101200.97;;;12.30;48.96
12213;BME280;6169;44.158;22.788;2023-03-23T22:14:42;101197.28;;;12.47;48.04
12213;BME280;6169;44.158;22.788;2023-03-23T22:19:44;101195.88;;;12.45;47.73
12213;BME280;6169;44.158;22.788;2023-03-23T22:24:46;101189.59;;;12.33;46.56
12213;BME280;6169;44.158;22.788;2023-03-23T22:29:50;101189.72;;;12.50;45.85
12213;BME280;6169;44.158;22.788;2023-03-23T22:34:53;101203.19;;;11.97;47.68
12213;BME280;6169;44.158;22.788;2023-03-23T22:39:55;101205.59;;;11.75;48.44
12213;BME280;6169;44.158;22.788;2023-03-23T22:44:59;101202.94;;;11.99;48.94
12213;BME280;6169;44.158;22.788;2023-03-23T22:50:01;101207.56;;;11.98;49.15
12213;BME280;6169;44.158;22.788;2023-03-23T22:55:05;101203.44;;;12.08;47.64
12213;BME280;6169;44.158;22.788;2023-03-23T23:00:10;101200.78;;;11.89;48.54
12213;BME280;6169;44.158;22.788;2023-03-23T23:05:15;101213.69;;;11.82;49.30
12213;BME280;6169;44.158;22.788;2023-03-23T23:10:17;101209.22;;;11.69;49.26
12213;BME280;6169;44.158;22.788;2023-03-23T23:15:21;101208.94;;;11.47;49.03
12213;BME280;6169;44.158;22.788;2023-03-23T23:20:24;101206.78;;;11.19;49.49
12213;BME280;6169;44.158;22.788;2023-03-23T23:25:29;101209.00;;;11.41;48.83
12213;BME280;6169;44.158;22.788;2023-03-23T23:30:34;101202.44;;;11.78;47.48
12213;BME280;6169;44.158;22.788;2023-03-23T23:35:36;101202.75;;;11.22;48.84
12213;BME280;6169;44.158;22.788;2023-03-23T23:40:40;101197.00;;;11.30;48.40
12213;BME280;6169;44.158;22.788;2023-03-23T23:45:44;101196.41;;;11.28;48.24
12213;BME280;6169;44.158;22.788;2023-03-23T23:50:49;101200.00;;;10.91;48.92
12213;BME280;6169;44.158;22.788;2023-03-23T23:55:51;101197.31;;;10.66;49.59
